sensor_id;sensor_type;location;lat;lon;timestamp;temperature;humidity
56298;DHT22;42208;6.376;-10.782;2022-10-17T00:01:06;25.30;99.90
56298;DHT22;42208;6.376;-10.782;2022-10-17T00:03:36;25.30;99.90
56298;DHT22;42208;6.376;-10.782;2022-10-17T00:06:10;25.20;99.90
56298;DHT22;42208;6.376;-10.782;2022-10-17T00:08:43;25.10;99.90
56298;DHT22;42208;6.376;-10.782;2022-10-17T00:11:17;25.10;99.90
56298;DHT22;42208;6.376;-10.782;2022-10-17T00:13:47;25.10;99.90
56298;DHT22;42208;6.376;-10.782;2022-10-17T00:16:27;25.10;99.90
56298;DHT22;42208;6.376;-10.782;2022-10-17T00:18:56;25.10;99.90
56298;DHT22;42208;6.376;-10.782;2022-10-17T00:21:24;25.10;99.90
56298;DHT22;42208;6.376;-10.782;2022-10-17T00:23:53;25.00;99.90
56298;DHT22;42208;6.376;-10.782;2022-10-17T00:26:22;25.00;99.90
56298;DHT22;42208;6.376;-10.782;2022-10-17T00:28:52;25.00;99.90
56298;DHT22;42208;6.376;-10.782;2022-10-17T00:31:21;25.00;99.90
56298;DHT22;42208;6.376;-10.782;2022-10-17T00:33:50;24.90;99.90
56298;DHT22;42208;6.376;-10.782;2022-10-17T00:36:24;24.90;99.90
56298;DHT22;42208;6.376;-10.782;2022-10-17T00:38:55;24.90;99.90
56298;DHT22;42208;6.376;-10.782;2022-10-17T00:41:26;24.90;99.90
56298;DHT22;42208;6.376;-10.782;2022-10-17T00:44:01;24.80;99.90
56298;DHT22;42208;6.376;-10.782;2022-10-17T00:46:32;24.80;99.90
56298;DHT22;42208;6.376;-10.782;2022-10-17T00:49:08;24.80;99.90
56298;DHT22;42208;6.376;-10.782;2022-10-17T00:51:42;24.90;99.90
56298;DHT22;42208;6.376;-10.782;2022-10-17T00:54:14;24.90;99.90
56298;DHT22;42208;6.376;-10.782;2022-10-17T00:56:43;24.90;99.90
56298;DHT22;42208;6.376;-10.782;2022-10-17T00:59:15;24.80;99.90
56298;DHT22;42208;6.376;-10.782;2022-10-17T01:04:26;24.80;99.90
56298;DHT22;42208;6.376;-10.782;2022-10-17T01:06:54;24.80;99.90
56298;DHT22;42208;6.376;-10.782;2022-10-17T01:09:23;24.70;99.90
56298;DHT22;42208;6.376;-10.782;2022-10-17T01:12:22;24.70;99.90
56298;DHT22;42208;6.376;-10.782;2022-10-17T01:18:09;24.70;99.90
56298;DHT22;42208;6.376;-10.782;2022-10-17T01:20:52;24.70;99.90
56298;DHT22;42208;6.376;-10.782;2022-10-17T01:31:52;24.70;99.90
56298;DHT22;42208;6.376;-10.782;2022-10-17T01:37:18;24.70;99.90
56298;DHT22;42208;6.376;-10.782;2022-10-17T01:39:54;24.70;99.90
56298;DHT22;42208;6.376;-10.782;2022-10-17T01:42:32;24.70;99.90
56298;DHT22;42208;6.376;-10.782;2022-10-17T01:45:19;24.70;99.90
56298;DHT22;42208;6.376;-10.782;2022-10-17T01:47:51;24.80;99.90
56298;DHT22;42208;6.376;-10.782;2022-10-17T01:50:30;24.80;99.90
56298;DHT22;42208;6.376;-10.782;2022-10-17T01:53:29;24.80;99.90
56298;DHT22;42208;6.376;-10.782;2022-10-17T01:55:59;24.80;99.90
56298;DHT22;42208;6.376;-10.782;2022-10-17T01:58:46;24.80;99.90
56298;DHT22;42208;6.376;-10.782;2022-10-17T02:01:17;24.80;99.90
56298;DHT22;42208;6.376;-10.782;2022-10-17T02:03:48;24.80;99.90
56298;DHT22;42208;6.376;-10.782;2022-10-17T02:06:18;24.80;99.90
56298;DHT22;42208;6.376;-10.782;2022-10-17T02:08:48;24.80;99.90
56298;DHT22;42208;6.376;-10.782;2022-10-17T02:11:22;24.70;99.90
56298;DHT22;42208;6.376;-10.782;2022-10-17T02:14:17;24.80;99.90
56298;DHT22;42208;6.376;-10.782;2022-10-17T02:17:01;24.70;99.90
56298;DHT22;42208;6.376;-10.782;2022-10-17T02:28:15;24.70;99.90
56298;DHT22;42208;6.376;-10.782;2022-10-17T02:33:33;24.70;99.90
56298;DHT22;42208;6.376;-10.782;2022-10-17T02:36:08;24.70;99.90
56298;DHT22;42208;6.376;-10.782;2022-10-17T02:38:39;24.70;99.90
56298;DHT22;42208;6.376;-10.782;2022-10-17T02:41:14;24.70;99.90
56298;DHT22;42208;6.376;-10.782;2022-10-17T02:43:45;24.70;99.90
56298;DHT22;42208;6.376;-10.782;2022-10-17T02:46:15;24.60;99.90
56298;DHT22;42208;6.376;-10.782;2022-10-17T02:48:53;24.60;99.90
56298;DHT22;42208;6.376;-10.782;2022-10-17T02:54:23;24.60;99.90
56298;DHT22;42208;6.376;-10.782;2022-10-17T02:57:01;24.60;99.90
56298;DHT22;42208;6.376;-10.782;2022-10-17T02:59:35;24.60;99.90
56298;DHT22;42208;6.376;-10.782;2022-10-17T03:02:05;24.50;99.90
56298;DHT22;42208;6.376;-10.782;2022-10-17T03:04:34;24.50;99.90
56298;DHT22;42208;6.376;-10.782;2022-10-17T03:07:02;24.50;99.90
56298;DHT22;42208;6.376;-10.782;2022-10-17T03:09:30;24.50;99.90
56298;DHT22;42208;6.376;-10.782;2022-10-17T03:11:58;24.50;99.90
56298;DHT22;42208;6.376;-10.782;2022-10-17T03:14:27;24.50;99.90
56298;DHT22;42208;6.376;-10.782;2022-10-17T03:16:55;24.50;99.90
56298;DHT22;42208;6.376;-10.782;2022-10-17T03:19:24;24.50;99.90
56298;DHT22;42208;6.376;-10.782;2022-10-17T03:21:53;24.50;99.90
56298;DHT22;42208;6.376;-10.782;2022-10-17T03:24:21;24.40;99.90
56298;DHT22;42208;6.376;-10.782;2022-10-17T03:26:49;24.40;99.90
56298;DHT22;42208;6.376;-10.782;2022-10-17T03:29:18;24.40;99.90
56298;DHT22;42208;6.376;-10.782;2022-10-17T03:31:47;24.40;99.90
56298;DHT22;42208;6.376;-10.782;2022-10-17T03:34:16;24.50;99.90
56298;DHT22;42208;6.376;-10.782;2022-10-17T03:36:45;24.40;99.90
56298;DHT22;42208;6.376;-10.782;2022-10-17T03:39:13;24.40;99.90
56298;DHT22;42208;6.376;-10.782;2022-10-17T03:41:41;24.40;99.90
56298;DHT22;42208;6.376;-10.782;2022-10-17T03:44:11;24.40;99.90
56298;DHT22;42208;6.376;-10.782;2022-10-17T03:46:39;24.40;99.90
56298;DHT22;42208;6.376;-10.782;2022-10-17T03:49:08;24.40;99.90
56298;DHT22;42208;6.376;-10.782;2022-10-17T03:51:37;24.40;99.90
56298;DHT22;42208;6.376;-10.782;2022-10-17T03:54:11;24.50;99.90
56298;DHT22;42208;6.376;-10.782;2022-10-17T03:56:39;24.40;99.90
56298;DHT22;42208;6.376;-10.782;2022-10-17T03:59:15;24.40;99.90
56298;DHT22;42208;6.376;-10.782;2022-10-17T04:01:52;24.40;99.90
56298;DHT22;42208;6.376;-10.782;2022-10-17T04:04:21;24.40;99.90
56298;DHT22;42208;6.376;-10.782;2022-10-17T04:06:49;24.40;99.90
56298;DHT22;42208;6.376;-10.782;2022-10-17T04:09:18;24.40;99.90
56298;DHT22;42208;6.376;-10.782;2022-10-17T04:11:57;24.40;99.90
56298;DHT22;42208;6.376;-10.782;2022-10-17T04:14:26;24.40;99.90
56298;DHT22;42208;6.376;-10.782;2022-10-17T04:16:54;24.40;99.90
56298;DHT22;42208;6.376;-10.782;2022-10-17T04:19:22;24.40;99.90
56298;DHT22;42208;6.376;-10.782;2022-10-17T04:21:53;24.30;99.90
56298;DHT22;42208;6.376;-10.782;2022-10-17T04:24:21;24.30;99.90
56298;DHT22;42208;6.376;-10.782;2022-10-17T04:27:09;24.30;99.90
56298;DHT22;42208;6.376;-10.782;2022-10-17T04:29:42;24.30;99.90
56298;DHT22;42208;6.376;-10.782;2022-10-17T04:32:16;24.30;99.90
56298;DHT22;42208;6.376;-10.782;2022-10-17T04:34:49;24.30;99.90
56298;DHT22;42208;6.376;-10.782;2022-10-17T04:37:20;24.40;99.90
56298;DHT22;42208;6.376;-10.782;2022-10-17T04:39:50;24.40;99.90
56298;DHT22;42208;6.376;-10.782;2022-10-17T04:42:19;24.40;99.90
56298;DHT22;42208;6.376;-10.782;2022-10-17T04:44:50;24.40;99.90
56298;DHT22;42208;6.376;-10.782;2022-10-17T04:47:18;24.30;99.90
56298;DHT22;42208;6.376;-10.782;2022-10-17T04:49:46;24.20;99.90
56298;DHT22;42208;6.376;-10.782;2022-10-17T04:52:15;24.20;99.90
56298;DHT22;42208;6.376;-10.782;2022-10-17T04:54:48;24.20;99.90
56298;DHT22;42208;6.376;-10.782;2022-10-17T04:57:18;24.20;99.90
56298;DHT22;42208;6.376;-10.782;2022-10-17T04:59:56;24.20;99.90
56298;DHT22;42208;6.376;-10.782;2022-10-17T05:02:43;24.30;99.90
56298;DHT22;42208;6.376;-10.782;2022-10-17T05:05:11;24.30;99.90
56298;DHT22;42208;6.376;-10.782;2022-10-17T05:07:40;24.30;99.90
56298;DHT22;42208;6.376;-10.782;2022-10-17T05:10:34;24.30;99.90
56298;DHT22;42208;6.376;-10.782;2022-10-17T05:13:04;24.30;99.90
56298;DHT22;42208;6.376;-10.782;2022-10-17T05:15:33;24.30;99.90
56298;DHT22;42208;6.376;-10.782;2022-10-17T05:18:03;24.30;99.90
56298;DHT22;42208;6.376;-10.782;2022-10-17T05:20:32;24.30;99.90
56298;DHT22;42208;6.376;-10.782;2022-10-17T05:23:01;24.40;99.90
56298;DHT22;42208;6.376;-10.782;2022-10-17T05:25:34;24.40;99.90
56298;DHT22;42208;6.376;-10.782;2022-10-17T05:28:03;24.40;99.90
56298;DHT22;42208;6.376;-10.782;2022-10-17T05:30:31;24.30;99.90
56298;DHT22;42208;6.376;-10.782;2022-10-17T05:33:06;24.20;99.90
56298;DHT22;42208;6.376;-10.782;2022-10-17T05:35:35;24.20;99.90
56298;DHT22;42208;6.376;-10.782;2022-10-17T05:38:04;24.20;99.90
56298;DHT22;42208;6.376;-10.782;2022-10-17T05:40:34;24.20;99.90
56298;DHT22;42208;6.376;-10.782;2022-10-17T05:43:02;24.20;99.90
56298;DHT22;42208;6.376;-10.782;2022-10-17T05:45:31;24.20;99.90
56298;DHT22;42208;6.376;-10.782;2022-10-17T05:48:00;24.20;99.90
56298;DHT22;42208;6.376;-10.782;2022-10-17T05:50:29;24.10;99.90
56298;DHT22;42208;6.376;-10.782;2022-10-17T05:53:04;24.10;99.90
56298;DHT22;42208;6.376;-10.782;2022-10-17T05:55:38;24.10;99.90
56298;DHT22;42208;6.376;-10.782;2022-10-17T05:58:06;24.10;99.90
56298;DHT22;42208;6.376;-10.782;2022-10-17T06:00:47;24.10;99.90
56298;DHT22;42208;6.376;-10.782;2022-10-17T06:03:16;24.10;99.90
56298;DHT22;42208;6.376;-10.782;2022-10-17T06:05:45;24.10;99.90
56298;DHT22;42208;6.376;-10.782;2022-10-17T06:08:13;24.10;99.90
56298;DHT22;42208;6.376;-10.782;2022-10-17T06:10:42;24.10;99.90
56298;DHT22;42208;6.376;-10.782;2022-10-17T06:13:11;24.10;99.90
56298;DHT22;42208;6.376;-10.782;2022-10-17T06:15:39;24.10;99.90
56298;DHT22;42208;6.376;-10.782;2022-10-17T06:18:10;24.10;99.90
56298;DHT22;42208;6.376;-10.782;2022-10-17T06:20:38;24.00;99.90
56298;DHT22;42208;6.376;-10.782;2022-10-17T06:23:15;24.00;99.90
56298;DHT22;42208;6.376;-10.782;2022-10-17T06:26:06;23.90;99.90
56298;DHT22;42208;6.376;-10.782;2022-10-17T06:28:35;23.90;99.90
56298;DHT22;42208;6.376;-10.782;2022-10-17T06:31:11;23.90;99.90
56298;DHT22;42208;6.376;-10.782;2022-10-17T06:33:42;24.00;99.90
56298;DHT22;42208;6.376;-10.782;2022-10-17T06:36:13;24.00;99.90
56298;DHT22;42208;6.376;-10.782;2022-10-17T06:38:43;23.90;99.90
56298;DHT22;42208;6.376;-10.782;2022-10-17T06:41:22;24.00;99.90
56298;DHT22;42208;6.376;-10.782;2022-10-17T06:43:53;24.00;99.90
56298;DHT22;42208;6.376;-10.782;2022-10-17T06:46:44;23.90;99.90
56298;DHT22;42208;6.376;-10.782;2022-10-17T06:49:15;24.00;99.90
56298;DHT22;42208;6.376;-10.782;2022-10-17T06:52:01;24.00;99.90
56298;DHT22;42208;6.376;-10.782;2022-10-17T06:54:42;24.00;99.90
56298;DHT22;42208;6.376;-10.782;2022-10-17T06:57:30;24.00;99.90
56298;DHT22;42208;6.376;-10.782;2022-10-17T07:00:20;24.00;99.90
56298;DHT22;42208;6.376;-10.782;2022-10-17T07:02:52;24.00;99.90
56298;DHT22;42208;6.376;-10.782;2022-10-17T07:05:20;24.00;99.90
56298;DHT22;42208;6.376;-10.782;2022-10-17T07:07:48;24.10;99.90
56298;DHT22;42208;6.376;-10.782;2022-10-17T07:10:18;24.10;99.90
56298;DHT22;42208;6.376;-10.782;2022-10-17T07:12:47;24.10;99.90
56298;DHT22;42208;6.376;-10.782;2022-10-17T07:15:15;24.10;99.90
56298;DHT22;42208;6.376;-10.782;2022-10-17T07:17:47;24.10;99.90
56298;DHT22;42208;6.376;-10.782;2022-10-17T07:20:18;24.10;99.90
56298;DHT22;42208;6.376;-10.782;2022-10-17T07:22:46;24.10;99.90
56298;DHT22;42208;6.376;-10.782;2022-10-17T07:25:14;24.10;99.90
56298;DHT22;42208;6.376;-10.782;2022-10-17T07:27:49;24.10;99.90
56298;DHT22;42208;6.376;-10.782;2022-10-17T07:30:18;24.10;99.90
56298;DHT22;42208;6.376;-10.782;2022-10-17T07:32:53;24.20;99.90
56298;DHT22;42208;6.376;-10.782;2022-10-17T07:35:22;24.20;99.90
56298;DHT22;42208;6.376;-10.782;2022-10-17T07:37:50;24.30;99.90
56298;DHT22;42208;6.376;-10.782;2022-10-17T07:40:20;24.30;99.90
56298;DHT22;42208;6.376;-10.782;2022-10-17T07:42:48;24.40;99.90
56298;DHT22;42208;6.376;-10.782;2022-10-17T07:45:18;24.40;99.90
56298;DHT22;42208;6.376;-10.782;2022-10-17T07:47:46;24.50;99.90
56298;DHT22;42208;6.376;-10.782;2022-10-17T07:50:15;24.60;99.90
56298;DHT22;42208;6.376;-10.782;2022-10-17T07:52:44;24.70;99.90
56298;DHT22;42208;6.376;-10.782;2022-10-17T07:55:13;24.70;99.90
56298;DHT22;42208;6.376;-10.782;2022-10-17T07:57:41;24.80;99.90
56298;DHT22;42208;6.376;-10.782;2022-10-17T08:00:10;24.80;99.90
56298;DHT22;42208;6.376;-10.782;2022-10-17T08:02:41;24.90;99.90
56298;DHT22;42208;6.376;-10.782;2022-10-17T08:05:09;25.00;99.90
56298;DHT22;42208;6.376;-10.782;2022-10-17T08:07:37;25.00;99.90
56298;DHT22;42208;6.376;-10.782;2022-10-17T08:10:06;25.10;99.90
56298;DHT22;42208;6.376;-10.782;2022-10-17T08:12:35;25.10;99.90
56298;DHT22;42208;6.376;-10.782;2022-10-17T08:15:04;25.20;99.90
56298;DHT22;42208;6.376;-10.782;2022-10-17T08:17:37;25.30;99.90
56298;DHT22;42208;6.376;-10.782;2022-10-17T08:20:06;25.30;99.90
56298;DHT22;42208;6.376;-10.782;2022-10-17T08:22:34;25.30;99.90
56298;DHT22;42208;6.376;-10.782;2022-10-17T08:25:03;25.40;99.90
56298;DHT22;42208;6.376;-10.782;2022-10-17T08:27:34;25.40;99.90
56298;DHT22;42208;6.376;-10.782;2022-10-17T08:30:03;25.40;99.90
56298;DHT22;42208;6.376;-10.782;2022-10-17T08:32:31;25.40;99.90
56298;DHT22;42208;6.376;-10.782;2022-10-17T08:34:59;25.50;99.90
56298;DHT22;42208;6.376;-10.782;2022-10-17T08:37:28;25.50;99.90
56298;DHT22;42208;6.376;-10.782;2022-10-17T08:39:56;25.60;99.90
56298;DHT22;42208;6.376;-10.782;2022-10-17T08:42:40;25.60;99.90
56298;DHT22;42208;6.376;-10.782;2022-10-17T08:48:03;25.70;99.90
56298;DHT22;42208;6.376;-10.782;2022-10-17T08:55:52;25.80;99.90
56298;DHT22;42208;6.376;-10.782;2022-10-17T08:58:30;26.00;99.90
56298;DHT22;42208;6.376;-10.782;2022-10-17T09:01:16;26.10;99.90
56298;DHT22;42208;6.376;-10.782;2022-10-17T09:15:00;26.40;99.90
56298;DHT22;42208;6.376;-10.782;2022-10-17T09:20:31;26.70;99.90
56298;DHT22;42208;6.376;-10.782;2022-10-17T09:23:05;26.80;99.90
56298;DHT22;42208;6.376;-10.782;2022-10-17T09:25:44;26.90;99.90
56298;DHT22;42208;6.376;-10.782;2022-10-17T09:28:34;27.00;99.90
56298;DHT22;42208;6.376;-10.782;2022-10-17T09:31:23;27.00;99.90
56298;DHT22;42208;6.376;-10.782;2022-10-17T09:33:55;27.10;99.90
56298;DHT22;42208;6.376;-10.782;2022-10-17T09:36:35;27.20;99.90
56298;DHT22;42208;6.376;-10.782;2022-10-17T09:39:18;27.20;99.90
56298;DHT22;42208;6.376;-10.782;2022-10-17T09:41:54;27.30;99.90
56298;DHT22;42208;6.376;-10.782;2022-10-17T09:44:46;27.30;99.90
56298;DHT22;42208;6.376;-10.782;2022-10-17T09:49:52;27.50;99.90
56298;DHT22;42208;6.376;-10.782;2022-10-17T09:55:14;27.50;99.90
56298;DHT22;42208;6.376;-10.782;2022-10-17T09:57:58;27.60;99.90
56298;DHT22;42208;6.376;-10.782;2022-10-17T10:00:30;27.70;99.90
56298;DHT22;42208;6.376;-10.782;2022-10-17T10:06:19;27.80;99.90
56298;DHT22;42208;6.376;-10.782;2022-10-17T10:08:53;27.80;99.90
56298;DHT22;42208;6.376;-10.782;2022-10-17T10:12:15;27.80;99.90
56298;DHT22;42208;6.376;-10.782;2022-10-17T10:16:48;27.80;99.90
56298;DHT22;42208;6.376;-10.782;2022-10-17T10:19:35;27.90;99.90
56298;DHT22;42208;6.376;-10.782;2022-10-17T10:22:17;27.90;99.90
56298;DHT22;42208;6.376;-10.782;2022-10-17T10:25:15;28.10;99.90
56298;DHT22;42208;6.376;-10.782;2022-10-17T10:27:44;28.20;99.90
56298;DHT22;42208;6.376;-10.782;2022-10-17T10:30:26;28.20;99.90
56298;DHT22;42208;6.376;-10.782;2022-10-17T10:32:57;28.20;99.90
56298;DHT22;42208;6.376;-10.782;2022-10-17T10:35:33;28.20;99.90
56298;DHT22;42208;6.376;-10.782;2022-10-17T10:38:12;28.10;99.90
56298;DHT22;42208;6.376;-10.782;2022-10-17T10:40:47;28.10;99.90
56298;DHT22;42208;6.376;-10.782;2022-10-17T10:43:36;28.20;99.90
56298;DHT22;42208;6.376;-10.782;2022-10-17T10:46:19;28.20;99.90
56298;DHT22;42208;6.376;-10.782;2022-10-17T10:48:52;28.40;99.90
56298;DHT22;42208;6.376;-10.782;2022-10-17T10:54:30;28.40;99.90
56298;DHT22;42208;6.376;-10.782;2022-10-17T10:57:02;28.30;99.90
56298;DHT22;42208;6.376;-10.782;2022-10-17T10:59:55;28.20;99.90
56298;DHT22;42208;6.376;-10.782;2022-10-17T11:02:37;28.20;99.90
56298;DHT22;42208;6.376;-10.782;2022-10-17T11:05:50;28.30;99.90
56298;DHT22;42208;6.376;-10.782;2022-10-17T11:08:17;28.40;99.90
56298;DHT22;42208;6.376;-10.782;2022-10-17T11:13:41;28.40;99.90
56298;DHT22;42208;6.376;-10.782;2022-10-17T11:20:25;28.20;99.90
56298;DHT22;42208;6.376;-10.782;2022-10-17T11:22:31;28.40;99.90
56298;DHT22;42208;6.376;-10.782;2022-10-17T11:28:37;28.60;99.90
56298;DHT22;42208;6.376;-10.782;2022-10-17T11:31:09;28.60;99.90
56298;DHT22;42208;6.376;-10.782;2022-10-17T11:33:53;28.50;99.90
56298;DHT22;42208;6.376;-10.782;2022-10-17T11:36:29;28.50;99.90
56298;DHT22;42208;6.376;-10.782;2022-10-17T11:41:55;28.10;99.90
56298;DHT22;42208;6.376;-10.782;2022-10-17T11:44:37;28.10;99.90
56298;DHT22;42208;6.376;-10.782;2022-10-17T11:50:15;27.80;99.90
56298;DHT22;42208;6.376;-10.782;2022-10-17T11:53:23;27.80;99.90
56298;DHT22;42208;6.376;-10.782;2022-10-17T11:55:53;27.70;99.90
56298;DHT22;42208;6.376;-10.782;2022-10-17T11:58:49;27.80;99.90
56298;DHT22;42208;6.376;-10.782;2022-10-17T12:01:40;28.10;99.90
56298;DHT22;42208;6.376;-10.782;2022-10-17T12:10:30;28.60;99.90
56298;DHT22;42208;6.376;-10.782;2022-10-17T12:18:45;28.70;99.90
56298;DHT22;42208;6.376;-10.782;2022-10-17T12:21:14;28.70;99.90
56298;DHT22;42208;6.376;-10.782;2022-10-17T12:23:53;28.60;99.90
56298;DHT22;42208;6.376;-10.782;2022-10-17T12:26:27;28.50;99.90
56298;DHT22;42208;6.376;-10.782;2022-10-17T12:28:56;28.40;99.90
56298;DHT22;42208;6.376;-10.782;2022-10-17T12:31:26;28.50;99.90
56298;DHT22;42208;6.376;-10.782;2022-10-17T12:34:03;28.70;99.90
56298;DHT22;42208;6.376;-10.782;2022-10-17T12:46:57;28.90;99.90
56298;DHT22;42208;6.376;-10.782;2022-10-17T12:49:48;28.70;99.90
56298;DHT22;42208;6.376;-10.782;2022-10-17T12:52:50;28.50;99.90
56298;DHT22;42208;6.376;-10.782;2022-10-17T12:55:23;28.40;99.90
56298;DHT22;42208;6.376;-10.782;2022-10-17T13:00:42;28.20;99.90
56298;DHT22;42208;6.376;-10.782;2022-10-17T13:03:32;28.20;99.90
56298;DHT22;42208;6.376;-10.782;2022-10-17T13:06:04;28.30;99.90
56298;DHT22;42208;6.376;-10.782;2022-10-17T13:08:39;28.30;99.90
56298;DHT22;42208;6.376;-10.782;2022-10-17T13:11:10;28.40;99.90
56298;DHT22;42208;6.376;-10.782;2022-10-17T13:13:48;28.30;99.90
56298;DHT22;42208;6.376;-10.782;2022-10-17T13:16:36;28.20;99.90
56298;DHT22;42208;6.376;-10.782;2022-10-17T13:19:17;28.20;99.90
56298;DHT22;42208;6.376;-10.782;2022-10-17T13:22:09;28.10;99.90
56298;DHT22;42208;6.376;-10.782;2022-10-17T13:24:39;28.10;99.90
56298;DHT22;42208;6.376;-10.782;2022-10-17T13:27:27;28.10;99.90
56298;DHT22;42208;6.376;-10.782;2022-10-17T13:29:58;28.20;99.90
56298;DHT22;42208;6.376;-10.782;2022-10-17T13:32:35;28.20;99.90
56298;DHT22;42208;6.376;-10.782;2022-10-17T13:35:06;28.40;99.90
56298;DHT22;42208;6.376;-10.782;2022-10-17T13:37:36;28.60;99.90
56298;DHT22;42208;6.376;-10.782;2022-10-17T13:40:13;28.60;99.90
56298;DHT22;42208;6.376;-10.782;2022-10-17T13:43:02;28.60;99.90
56298;DHT22;42208;6.376;-10.782;2022-10-17T13:45:33;28.70;99.90
56298;DHT22;42208;6.376;-10.782;2022-10-17T13:48:07;28.90;99.90
56298;DHT22;42208;6.376;-10.782;2022-10-17T13:50:47;28.80;99.90
56298;DHT22;42208;6.376;-10.782;2022-10-17T13:53:17;28.70;99.90
56298;DHT22;42208;6.376;-10.782;2022-10-17T13:58:47;28.70;99.90
56298;DHT22;42208;6.376;-10.782;2022-10-17T14:01:18;28.80;99.90
56298;DHT22;42208;6.376;-10.782;2022-10-17T14:03:47;28.80;99.90
56298;DHT22;42208;6.376;-10.782;2022-10-17T14:06:30;28.90;99.90
56298;DHT22;42208;6.376;-10.782;2022-10-17T14:09:03;28.90;99.90
56298;DHT22;42208;6.376;-10.782;2022-10-17T14:11:39;28.90;99.90
56298;DHT22;42208;6.376;-10.782;2022-10-17T14:14:19;28.70;99.90
56298;DHT22;42208;6.376;-10.782;2022-10-17T14:16:49;28.60;99.90
56298;DHT22;42208;6.376;-10.782;2022-10-17T14:19:35;28.20;99.90
56298;DHT22;42208;6.376;-10.782;2022-10-17T14:22:25;28.00;99.90
56298;DHT22;42208;6.376;-10.782;2022-10-17T14:24:54;27.70;99.90
56298;DHT22;42208;6.376;-10.782;2022-10-17T14:27:55;27.70;99.90
56298;DHT22;42208;6.376;-10.782;2022-10-17T14:33:21;27.90;99.90
56298;DHT22;42208;6.376;-10.782;2022-10-17T14:35:54;28.30;99.90
56298;DHT22;42208;6.376;-10.782;2022-10-17T14:38:23;28.80;99.90
56298;DHT22;42208;6.376;-10.782;2022-10-17T14:40:59;29.00;99.90
56298;DHT22;42208;6.376;-10.782;2022-10-17T14:44:04;29.00;99.90
56298;DHT22;42208;6.376;-10.782;2022-10-17T14:46:36;29.10;99.90
56298;DHT22;42208;6.376;-10.782;2022-10-17T14:49:22;29.10;99.90
56298;DHT22;42208;6.376;-10.782;2022-10-17T14:52:10;29.20;99.90
56298;DHT22;42208;6.376;-10.782;2022-10-17T14:54:46;29.10;99.90
56298;DHT22;42208;6.376;-10.782;2022-10-17T14:59:58;29.20;99.90
56298;DHT22;42208;6.376;-10.782;2022-10-17T15:02:29;29.30;99.90
56298;DHT22;42208;6.376;-10.782;2022-10-17T15:04:58;29.20;99.90
56298;DHT22;42208;6.376;-10.782;2022-10-17T15:07:26;29.20;99.90
56298;DHT22;42208;6.376;-10.782;2022-10-17T15:09:54;29.20;99.90
56298;DHT22;42208;6.376;-10.782;2022-10-17T15:12:24;29.40;99.90
56298;DHT22;42208;6.376;-10.782;2022-10-17T15:14:52;29.30;99.90
56298;DHT22;42208;6.376;-10.782;2022-10-17T15:19:54;29.80;99.90
56298;DHT22;42208;6.376;-10.782;2022-10-17T15:22:23;29.90;99.90
56298;DHT22;42208;6.376;-10.782;2022-10-17T15:24:52;29.80;99.90
56298;DHT22;42208;6.376;-10.782;2022-10-17T15:27:23;30.30;99.90
56298;DHT22;42208;6.376;-10.782;2022-10-17T15:29:52;30.80;99.90
56298;DHT22;42208;6.376;-10.782;2022-10-17T15:32:20;30.90;99.90
56298;DHT22;42208;6.376;-10.782;2022-10-17T15:34:48;30.80;99.90
56298;DHT22;42208;6.376;-10.782;2022-10-17T15:37:21;30.90;99.90
56298;DHT22;42208;6.376;-10.782;2022-10-17T15:39:52;30.80;99.90
56298;DHT22;42208;6.376;-10.782;2022-10-17T15:42:25;30.60;99.90
56298;DHT22;42208;6.376;-10.782;2022-10-17T15:44:55;31.20;99.90
56298;DHT22;42208;6.376;-10.782;2022-10-17T15:47:27;31.60;99.90
56298;DHT22;42208;6.376;-10.782;2022-10-17T15:49:56;31.40;99.90
56298;DHT22;42208;6.376;-10.782;2022-10-17T15:52:25;30.80;99.90
56298;DHT22;42208;6.376;-10.782;2022-10-17T15:54:53;30.70;99.90
56298;DHT22;42208;6.376;-10.782;2022-10-17T15:57:28;31.40;99.90
56298;DHT22;42208;6.376;-10.782;2022-10-17T15:59:58;32.20;99.90
56298;DHT22;42208;6.376;-10.782;2022-10-17T16:02:27;32.50;99.90
56298;DHT22;42208;6.376;-10.782;2022-10-17T16:04:55;33.10;99.90
56298;DHT22;42208;6.376;-10.782;2022-10-17T16:07:24;33.90;99.90
56298;DHT22;42208;6.376;-10.782;2022-10-17T16:09:53;34.20;99.90
56298;DHT22;42208;6.376;-10.782;2022-10-17T16:12:27;34.50;99.90
56298;DHT22;42208;6.376;-10.782;2022-10-17T16:14:55;34.10;99.90
56298;DHT22;42208;6.376;-10.782;2022-10-17T16:17:24;34.00;99.90
56298;DHT22;42208;6.376;-10.782;2022-10-17T16:19:52;33.80;99.90
56298;DHT22;42208;6.376;-10.782;2022-10-17T16:22:28;34.20;99.90
56298;DHT22;42208;6.376;-10.782;2022-10-17T16:24:58;34.40;99.90
56298;DHT22;42208;6.376;-10.782;2022-10-17T16:27:26;34.60;99.90
56298;DHT22;42208;6.376;-10.782;2022-10-17T16:29:54;34.70;99.90
56298;DHT22;42208;6.376;-10.782;2022-10-17T16:32:22;34.40;99.90
56298;DHT22;42208;6.376;-10.782;2022-10-17T16:34:50;34.20;99.90
56298;DHT22;42208;6.376;-10.782;2022-10-17T16:37:19;34.60;99.90
56298;DHT22;42208;6.376;-10.782;2022-10-17T16:39:47;34.50;99.90
56298;DHT22;42208;6.376;-10.782;2022-10-17T16:42:15;34.70;99.90
56298;DHT22;42208;6.376;-10.782;2022-10-17T16:44:44;34.10;99.90
56298;DHT22;42208;6.376;-10.782;2022-10-17T16:47:12;34.00;99.90
56298;DHT22;42208;6.376;-10.782;2022-10-17T16:49:40;34.40;99.90
56298;DHT22;42208;6.376;-10.782;2022-10-17T16:52:12;34.80;99.90
56298;DHT22;42208;6.376;-10.782;2022-10-17T16:54:40;34.60;99.90
56298;DHT22;42208;6.376;-10.782;2022-10-17T16:57:08;35.00;99.90
56298;DHT22;42208;6.376;-10.782;2022-10-17T16:59:37;35.00;99.90
56298;DHT22;42208;6.376;-10.782;2022-10-17T17:02:05;34.40;99.90
56298;DHT22;42208;6.376;-10.782;2022-10-17T17:04:33;34.60;99.90
56298;DHT22;42208;6.376;-10.782;2022-10-17T17:07:02;34.30;99.90
56298;DHT22;42208;6.376;-10.782;2022-10-17T17:09:30;33.90;99.90
56298;DHT22;42208;6.376;-10.782;2022-10-17T17:11:58;33.20;99.90
56298;DHT22;42208;6.376;-10.782;2022-10-17T17:14:26;33.10;99.90
56298;DHT22;42208;6.376;-10.782;2022-10-17T17:16:55;32.50;99.90
56298;DHT22;42208;6.376;-10.782;2022-10-17T17:19:23;32.20;99.90
56298;DHT22;42208;6.376;-10.782;2022-10-17T17:21:51;31.90;99.90
56298;DHT22;42208;6.376;-10.782;2022-10-17T17:24:20;31.60;99.90
56298;DHT22;42208;6.376;-10.782;2022-10-17T17:26:53;31.60;99.90
56298;DHT22;42208;6.376;-10.782;2022-10-17T17:29:23;31.60;99.90
56298;DHT22;42208;6.376;-10.782;2022-10-17T17:31:52;31.50;99.90
56298;DHT22;42208;6.376;-10.782;2022-10-17T17:34:20;31.30;99.90
56298;DHT22;42208;6.376;-10.782;2022-10-17T17:36:48;31.00;99.90
56298;DHT22;42208;6.376;-10.782;2022-10-17T17:39:16;30.80;99.90
56298;DHT22;42208;6.376;-10.782;2022-10-17T17:41:45;30.50;99.90
56298;DHT22;42208;6.376;-10.782;2022-10-17T17:44:14;30.40;99.90
56298;DHT22;42208;6.376;-10.782;2022-10-17T17:46:44;30.20;99.90
56298;DHT22;42208;6.376;-10.782;2022-10-17T17:49:12;30.10;99.90
56298;DHT22;42208;6.376;-10.782;2022-10-17T17:51:40;29.80;99.90
56298;DHT22;42208;6.376;-10.782;2022-10-17T17:54:08;29.70;99.90